Time;durP1;ratioP1;P1;durP2;ratioP2;P2;SDS_P1;SDS_P2;PMS_P1;PMS_P2;Temp;Humidity;BMP_temperature;BMP_pressure;BME280_temperature;BME280_humidity;BME280_pressure;Samples;Min_cycle;Max_cycle;Signal;HPM_P1;HPM_P2
2023/11/15 00:01:13;;;;;;;55.63;39.57;;;11.20;98.80;;;;;;5043675;28;20358;-63
2023/11/15 00:03:40;;;;;;;61.27;42.30;;;11.10;98.90;;;;;;5038143;28;20240;-62
2023/11/15 00:06:08;;;;;;;55.60;41.00;;;11.10;99.00;;;;;;5041997;28;20649;-63
2023/11/15 00:08:35;;;;;;;58.07;41.50;;;11.10;99.10;;;;;;5046682;28;20211;-62
2023/11/15 00:11:03;;;;;;;58.83;40.70;;;11.00;99.10;;;;;;5045239;28;20201;-63
2023/11/15 00:13:30;;;;;;;56.67;39.90;;;11.00;99.30;;;;;;5044214;28;20205;-63
2023/11/15 00:15:59;;;;;;;57.40;40.87;;;11.00;99.40;;;;;;5042094;28;20655;-63
2023/11/15 00:18:26;;;;;;;57.63;40.07;;;10.90;99.60;;;;;;5041458;28;20204;-63
2023/11/15 00:20:53;;;;;;;53.30;39.63;;;10.90;99.70;;;;;;5049738;28;20222;-63
2023/11/15 00:23:21;;;;;;;61.10;42.70;;;10.90;99.70;;;;;;5041617;28;20206;-63
2023/11/15 00:25:49;;;;;;;57.20;41.90;;;10.90;99.70;;;;;;5042044;28;20215;-63
2023/11/15 00:28:16;;;;;;;58.93;40.97;;;11.00;99.80;;;;;;5037205;28;20214;-63
2023/11/15 00:30:43;;;;;;;53.00;38.60;;;10.90;99.80;;;;;;5046609;28;20218;-62
2023/11/15 00:33:11;;;;;;;61.30;40.97;;;11.00;99.90;;;;;;5044450;28;20241;-63
2023/11/15 00:35:38;;;;;;;60.73;43.47;;;10.90;99.90;;;;;;5042655;28;20212;-62
2023/11/15 00:38:05;;;;;;;66.43;46.53;;;10.90;99.90;;;;;;5045847;28;20292;-63
2023/11/15 00:40:32;;;;;;;63.77;44.43;;;10.90;99.90;;;;;;5045450;28;20200;-63
2023/11/15 00:42:59;;;;;;;63.73;43.03;;;10.90;99.90;;;;;;5042796;28;20198;-63
2023/11/15 00:45:27;;;;;;;60.63;43.40;;;10.90;99.90;;;;;;5043172;28;20201;-62
2023/11/15 00:47:54;;;;;;;57.57;43.27;;;10.80;99.90;;;;;;5045050;28;20205;-63
2023/11/15 00:50:21;;;;;;;62.57;41.77;;;10.80;99.90;;;;;;5044239;28;20214;-62
2023/11/15 00:52:48;;;;;;;59.47;43.63;;;10.80;99.90;;;;;;5043010;28;20602;-62
2023/11/15 00:55:16;;;;;;;59.37;41.87;;;10.80;99.90;;;;;;5042397;28;20213;-63
2023/11/15 00:57:45;;;;;;;58.10;41.50;;;10.90;99.90;;;;;;5049864;28;20305;-62
2023/11/15 01:00:25;;;;;;;62.90;42.70;;;10.80;99.90;;;;;;5042987;28;20206;-63
2023/11/15 01:02:58;;;;;;;57.30;40.43;;;10.80;99.90;;;;;;5047263;28;20300;-63
2023/11/15 01:05:28;;;;;;;60.47;41.83;;;10.80;99.90;;;;;;5046931;28;20669;-63
2023/11/15 01:07:57;;;;;;;55.43;39.63;;;10.80;99.90;;;;;;5045527;28;20212;-63
2023/11/15 01:10:24;;;;;;;56.23;40.57;;;10.80;99.90;;;;;;5048242;28;20211;-63
2023/11/15 01:12:54;;;;;;;58.73;41.03;;;10.80;99.90;;;;;;5046101;28;20214;-63
2023/11/15 01:15:21;;;;;;;56.33;40.57;;;10.80;99.90;;;;;;5043615;28;20313;-62
2023/11/15 01:17:50;;;;;;;65.43;44.77;;;10.80;99.90;;;;;;5043201;28;20274;-62
2023/11/15 01:20:17;;;;;;;58.10;41.63;;;10.80;99.90;;;;;;5049864;28;20195;-63
2023/11/15 01:22:45;;;;;;;56.83;42.17;;;10.80;99.90;;;;;;5048582;28;20198;-63
2023/11/15 01:25:13;;;;;;;64.27;42.80;;;10.80;99.90;;;;;;5042466;28;20590;-63
2023/11/15 01:27:40;;;;;;;56.77;41.10;;;10.70;99.90;;;;;;5050029;28;20219;-62
2023/11/15 01:30:08;;;;;;;55.23;41.50;;;10.70;99.90;;;;;;5042965;28;20206;-64
2023/11/15 01:32:35;;;;;;;60.93;42.43;;;10.70;99.90;;;;;;5041996;28;20292;-62
2023/11/15 01:35:05;;;;;;;61.93;43.07;;;10.70;99.90;;;;;;5046564;28;20199;-63
2023/11/15 01:37:32;;;;;;;63.70;44.27;;;10.70;99.90;;;;;;5042874;28;20228;-63
2023/11/15 01:40:06;;;;;;;59.47;41.83;;;10.70;99.90;;;;;;5045564;28;20244;-62
2023/11/15 01:42:33;;;;;;;60.63;41.97;;;10.70;99.90;;;;;;5043822;28;20197;-63
2023/11/15 01:45:02;;;;;;;59.87;41.63;;;10.70;99.90;;;;;;5044701;28;20307;-62
2023/11/15 01:47:30;;;;;;;60.47;41.50;;;10.80;99.90;;;;;;5051849;28;20666;-62
2023/11/15 01:49:58;;;;;;;56.33;42.23;;;10.80;99.90;;;;;;5053720;28;20720;-62
2023/11/15 01:52:25;;;;;;;61.93;41.67;;;10.80;99.90;;;;;;5045636;28;20201;-63
2023/11/15 01:54:55;;;;;;;57.53;43.00;;;10.90;99.90;;;;;;5043733;28;20214;-62
2023/11/15 01:57:22;;;;;;;63.63;42.17;;;10.90;99.90;;;;;;5044141;28;20194;-63
2023/11/15 01:59:50;;;;;;;57.07;40.40;;;11.00;99.90;;;;;;5048213;28;20208;-63
2023/11/15 02:02:17;;;;;;;62.23;41.77;;;11.00;99.90;;;;;;5049047;28;20237;-63
2023/11/15 02:04:44;;;;;;;63.00;40.60;;;11.10;99.90;;;;;;5040739;28;20504;-63
2023/11/15 02:07:12;;;;;;;55.27;41.00;;;11.10;99.90;;;;;;5045668;28;20277;-63
2023/11/15 02:09:40;;;;;;;59.23;41.07;;;11.20;99.90;;;;;;5044710;28;20203;-63
2023/11/15 02:12:09;;;;;;;57.57;39.77;;;11.20;99.90;;;;;;5045211;28;20205;-63
2023/11/15 02:14:37;;;;;;;54.00;41.50;;;11.20;99.90;;;;;;5059033;28;20209;-63
2023/11/15 02:17:07;;;;;;;54.33;39.80;;;11.30;99.90;;;;;;5044276;28;20679;-63
2023/11/15 02:19:36;;;;;;;56.03;40.47;;;11.30;99.90;;;;;;5043140;28;20312;-63
2023/11/15 02:22:03;;;;;;;57.70;41.00;;;11.30;99.90;;;;;;5039928;28;20635;-63
2023/11/15 02:24:31;;;;;;;55.60;39.40;;;11.30;99.90;;;;;;5047200;28;20249;-63
2023/11/15 02:26:58;;;;;;;58.30;39.87;;;11.30;99.90;;;;;;5046497;28;20517;-63
2023/11/15 02:29:25;;;;;;;62.53;41.10;;;11.30;99.90;;;;;;5049239;28;20208;-63
2023/11/15 02:31:52;;;;;;;57.43;40.20;;;11.30;99.90;;;;;;5051759;28;20208;-63
2023/11/15 02:34:19;;;;;;;61.57;41.63;;;11.30;99.90;;;;;;5048718;28;20204;-63
2023/11/15 02:36:45;;;;;;;56.37;42.53;;;11.30;99.90;;;;;;5042377;28;20248;-63
2023/11/15 02:39:15;;;;;;;63.40;43.40;;;11.30;99.90;;;;;;5045299;28;20199;-63
2023/11/15 02:41:42;;;;;;;60.90;42.87;;;11.30;99.90;;;;;;5044515;28;20225;-63
2023/11/15 02:44:10;;;;;;;58.57;43.20;;;11.30;99.90;;;;;;5051367;28;20199;-65
2023/11/15 02:46:37;;;;;;;61.13;43.30;;;11.30;99.90;;;;;;5048376;28;20211;-65
2023/11/15 02:49:04;;;;;;;59.10;42.00;;;11.30;99.90;;;;;;5051797;28;20216;-63
2023/11/15 02:51:31;;;;;;;67.47;45.20;;;11.30;99.90;;;;;;5044430;28;20287;-63
2023/11/15 02:53:58;;;;;;;61.27;45.10;;;11.30;99.90;;;;;;5039285;28;20202;-63
2023/11/15 02:56:25;;;;;;;71.33;46.03;;;11.30;99.90;;;;;;5046806;28;20542;-63
2023/11/15 02:58:52;;;;;;;66.57;47.33;;;11.30;99.90;;;;;;5044254;28;20201;-63
2023/11/15 03:01:19;;;;;;;61.60;45.53;;;11.30;99.90;;;;;;5049917;28;20204;-63
2023/11/15 03:03:47;;;;;;;68.10;47.40;;;11.30;99.90;;;;;;5050646;28;20242;-63
2023/11/15 03:06:14;;;;;;;67.87;45.83;;;11.30;99.90;;;;;;5045497;28;20698;-63
2023/11/15 03:08:41;;;;;;;67.73;48.00;;;11.20;99.90;;;;;;5049801;28;20205;-63
2023/11/15 03:11:08;;;;;;;69.60;47.17;;;11.20;99.90;;;;;;5042179;28;20216;-63
2023/11/15 03:13:35;;;;;;;69.80;49.80;;;11.20;99.90;;;;;;5047025;28;20255;-63
2023/11/15 03:16:02;;;;;;;67.40;48.10;;;11.20;99.90;;;;;;5044094;28;20224;-63
2023/11/15 03:18:30;;;;;;;68.77;49.33;;;11.20;99.90;;;;;;5045517;28;20195;-63
2023/11/15 03:20:58;;;;;;;72.47;49.83;;;11.20;99.90;;;;;;5040803;28;20280;-63
2023/11/15 03:23:25;;;;;;;72.80;52.27;;;11.20;99.90;;;;;;5044137;28;20219;-63
2023/11/15 03:25:52;;;;;;;74.10;50.23;;;11.30;99.90;;;;;;5040197;28;20595;-63
2023/11/15 03:28:19;;;;;;;71.90;50.47;;;11.30;99.90;;;;;;5043252;28;20210;-63
2023/11/15 03:30:46;;;;;;;75.63;52.57;;;11.30;99.90;;;;;;5040684;28;20201;-64
2023/11/15 03:33:13;;;;;;;74.70;52.40;;;11.30;99.90;;;;;;5052210;28;20207;-64
2023/11/15 03:35:40;;;;;;;75.33;52.43;;;11.30;99.90;;;;;;5046560;28;20674;-63
2023/11/15 03:38:07;;;;;;;73.37;52.23;;;11.30;99.90;;;;;;5041916;28;20202;-63
2023/11/15 03:40:34;;;;;;;71.83;51.87;;;11.30;99.90;;;;;;5045426;28;20196;-63
2023/11/15 03:43:02;;;;;;;76.13;53.23;;;11.30;99.90;;;;;;5039238;28;20216;-63
2023/11/15 03:45:29;;;;;;;71.27;51.77;;;11.30;99.90;;;;;;5046114;28;20198;-63
2023/11/15 03:47:56;;;;;;;75.53;54.93;;;11.30;99.90;;;;;;5043899;28;20653;-62
2023/11/15 03:50:23;;;;;;;82.03;57.57;;;11.40;99.90;;;;;;5049616;28;20215;-63
2023/11/15 03:52:50;;;;;;;80.00;56.33;;;11.40;99.90;;;;;;5046027;28;20235;-62
2023/11/15 03:55:17;;;;;;;84.60;57.50;;;11.40;99.90;;;;;;5042109;28;20200;-63
2023/11/15 03:57:46;;;;;;;83.83;57.10;;;11.40;99.90;;;;;;5041325;28;20222;-63
2023/11/15 04:00:16;;;;;;;84.43;58.17;;;11.40;99.90;;;;;;5046368;28;20194;-63
2023/11/15 04:02:45;;;;;;;81.70;58.20;;;11.40;99.90;;;;;;5043825;28;20589;-63
2023/11/15 04:05:12;;;;;;;86.07;58.93;;;11.40;99.90;;;;;;5042125;28;20280;-63
2023/11/15 04:07:41;;;;;;;75.83;57.37;;;11.30;99.90;;;;;;5039050;28;20212;-63
2023/11/15 04:10:10;;;;;;;87.57;59.73;;;11.30;99.90;;;;;;5043491;28;20205;-63
2023/11/15 04:12:37;;;;;;;90.27;59.83;;;11.30;99.90;;;;;;5041718;28;20199;-63
2023/11/15 04:15:06;;;;;;;84.70;58.40;;;11.20;99.90;;;;;;5046814;28;20213;-63
2023/11/15 04:17:33;;;;;;;88.73;61.30;;;11.20;99.90;;;;;;5042471;28;20275;-63
2023/11/15 04:20:01;;;;;;;85.60;61.53;;;11.10;99.90;;;;;;5049488;28;20198;-63
2023/11/15 04:22:28;;;;;;;93.00;61.53;;;11.10;99.90;;;;;;5043612;28;20990;-63
2023/11/15 04:24:55;;;;;;;92.50;60.63;;;11.10;99.90;;;;;;5061298;28;20209;-63
2023/11/15 04:27:22;;;;;;;89.63;61.70;;;11.10;99.90;;;;;;5040883;28;20253;-62
2023/11/15 04:29:49;;;;;;;88.37;61.00;;;11.00;99.90;;;;;;5056254;28;20207;-63
2023/11/15 04:32:16;;;;;;;89.50;61.30;;;11.00;99.90;;;;;;5042105;28;20213;-63
2023/11/15 04:34:43;;;;;;;90.20;62.30;;;11.00;99.90;;;;;;5045902;28;20536;-63
2023/11/15 04:37:10;;;;;;;89.63;63.03;;;11.00;99.90;;;;;;5044165;28;21068;-63
2023/11/15 04:39:37;;;;;;;96.87;65.93;;;10.90;99.90;;;;;;5044272;28;20314;-63
2023/11/15 04:42:04;;;;;;;101.47;66.13;;;10.90;99.90;;;;;;5037787;28;20260;-63
2023/11/15 04:44:31;;;;;;;102.70;67.77;;;10.90;99.90;;;;;;5043168;28;20667;-63
2023/11/15 04:46:58;;;;;;;98.20;67.93;;;10.90;99.90;;;;;;5043450;28;20268;-63
2023/11/15 04:49:26;;;;;;;106.57;67.80;;;11.00;99.90;;;;;;5042697;28;20316;-63
2023/11/15 04:51:53;;;;;;;95.70;65.43;;;10.90;99.90;;;;;;5042379;28;20534;-63
2023/11/15 04:54:20;;;;;;;97.00;64.20;;;10.90;99.90;;;;;;5044272;28;20207;-63
2023/11/15 04:56:47;;;;;;;103.07;68.93;;;10.90;99.90;;;;;;5038700;28;20216;-62
2023/11/15 04:59:14;;;;;;;104.07;66.27;;;10.90;99.90;;;;;;5044022;28;20266;-62
2023/11/15 05:01:45;;;;;;;92.10;63.33;;;10.90;99.90;;;;;;5041900;28;20279;-63
2023/11/15 05:04:15;;;;;;;91.63;62.37;;;10.90;99.90;;;;;;5040428;28;20202;-63
2023/11/15 05:06:45;;;;;;;97.87;66.37;;;10.80;99.90;;;;;;5041922;28;20218;-63
2023/11/15 05:09:14;;;;;;;100.33;63.47;;;10.80;99.90;;;;;;5039510;28;20205;-63
2023/11/15 05:11:41;;;;;;;94.07;64.87;;;10.80;99.90;;;;;;5043567;28;20278;-63
2023/11/15 05:14:08;;;;;;;93.03;66.63;;;10.70;99.90;;;;;;5039700;28;20229;-62
2023/11/15 05:16:35;;;;;;;98.27;62.27;;;10.70;99.90;;;;;;5046154;28;20587;-63
2023/11/15 05:19:02;;;;;;;88.53;60.83;;;10.70;99.90;;;;;;5040007;28;20198;-63
2023/11/15 05:21:29;;;;;;;101.40;65.57;;;10.70;99.90;;;;;;5038206;28;20226;-63
2023/11/15 05:23:56;;;;;;;97.47;64.40;;;10.60;99.90;;;;;;5045178;28;20210;-63
2023/11/15 05:26:24;;;;;;;98.50;64.97;;;10.60;99.90;;;;;;5036269;28;20626;-63
2023/11/15 05:28:51;;;;;;;91.47;61.50;;;10.60;99.90;;;;;;5041901;28;20221;-63
2023/11/15 05:31:18;;;;;;;101.83;63.80;;;10.50;99.90;;;;;;5041753;28;20206;-63
2023/11/15 05:33:46;;;;;;;105.60;66.40;;;10.50;99.90;;;;;;5042205;28;20641;-63
2023/11/15 05:36:13;;;;;;;97.57;63.97;;;10.50;99.90;;;;;;5043077;28;20212;-62
2023/11/15 05:38:40;;;;;;;94.70;61.43;;;10.50;99.90;;;;;;5043256;28;20204;-63
2023/11/15 05:41:07;;;;;;;100.23;68.03;;;10.40;99.90;;;;;;5047810;28;20653;-63
2023/11/15 05:43:34;;;;;;;94.53;63.60;;;10.40;99.90;;;;;;5048161;28;20198;-63
2023/11/15 05:46:02;;;;;;;95.77;64.60;;;10.40;99.90;;;;;;5042360;28;20212;-63
2023/11/15 05:48:29;;;;;;;107.53;67.27;;;10.30;99.90;;;;;;5047467;28;20621;-63
2023/11/15 05:50:56;;;;;;;109.20;70.77;;;10.30;99.90;;;;;;5053816;28;20287;-63
2023/11/15 05:53:23;;;;;;;113.97;71.27;;;10.40;99.90;;;;;;5046151;28;20681;-63
2023/11/15 05:55:50;;;;;;;109.67;68.37;;;10.40;99.90;;;;;;5041890;28;20207;-63
2023/11/15 05:58:17;;;;;;;111.23;72.00;;;10.40;99.90;;;;;;5043669;28;20227;-63
2023/11/15 06:00:44;;;;;;;108.60;70.93;;;10.50;99.90;;;;;;5044838;28;20200;-62
2023/11/15 06:03:11;;;;;;;107.33;69.30;;;10.60;99.90;;;;;;5042896;28;20572;-63
2023/11/15 06:05:38;;;;;;;113.27;68.33;;;10.60;99.90;;;;;;5047859;28;20666;-64
2023/11/15 06:08:05;;;;;;;104.27;69.13;;;10.70;99.90;;;;;;5051234;28;20271;-63
2023/11/15 06:10:32;;;;;;;109.30;66.80;;;10.70;99.90;;;;;;5041730;28;20231;-63
2023/11/15 06:12:59;;;;;;;99.53;66.17;;;10.80;99.90;;;;;;5044136;28;20213;-63
2023/11/15 06:15:26;;;;;;;111.13;68.63;;;10.80;99.90;;;;;;5045100;28;20221;-63
2023/11/15 06:17:54;;;;;;;101.20;65.53;;;10.90;99.90;;;;;;5046004;28;20233;-63
2023/11/15 06:20:21;;;;;;;103.03;64.13;;;10.90;99.90;;;;;;5042547;28;20257;-63
2023/11/15 06:22:48;;;;;;;98.13;63.47;;;11.00;99.90;;;;;;5043293;28;20222;-63
2023/11/15 06:25:18;;;;;;;96.80;63.30;;;11.00;99.90;;;;;;5046820;28;20634;-62
2023/11/15 06:27:45;;;;;;;97.17;64.53;;;11.10;99.90;;;;;;5043097;28;20291;-62
2023/11/15 06:30:16;;;;;;;100.23;65.30;;;11.10;99.90;;;;;;5044683;28;20211;-63
2023/11/15 06:32:44;;;;;;;101.83;65.73;;;11.10;99.90;;;;;;5042368;28;20217;-63
2023/11/15 06:35:18;;;;;;;97.53;65.63;;;11.10;99.90;;;;;;5039585;28;20216;-63
2023/11/15 06:37:46;;;;;;;105.23;64.77;;;11.20;99.90;;;;;;5041543;28;20229;-62
2023/11/15 06:40:15;;;;;;;112.30;65.80;;;11.20;99.90;;;;;;5040618;28;20286;-63
2023/11/15 06:42:45;;;;;;;99.80;61.97;;;11.20;99.90;;;;;;5035976;28;20212;-63
2023/11/15 06:45:12;;;;;;;109.03;65.13;;;11.30;99.90;;;;;;5046595;28;20194;-63
2023/11/15 06:47:41;;;;;;;109.30;65.20;;;11.30;99.90;;;;;;5040418;28;20552;-63
2023/11/15 06:50:08;;;;;;;107.90;64.47;;;11.30;99.90;;;;;;5042002;28;20271;-62
2023/11/15 06:52:37;;;;;;;103.47;66.37;;;11.40;99.90;;;;;;5044294;28;20217;-62
2023/11/15 06:55:08;;;;;;;106.80;65.33;;;11.50;99.90;;;;;;5049234;28;20533;-63
2023/11/15 06:57:37;;;;;;;100.83;64.17;;;11.60;99.90;;;;;;5045158;28;20663;-63
2023/11/15 07:00:09;;;;;;;100.47;64.00;;;11.70;99.90;;;;;;5038727;28;20209;-62
2023/11/15 07:02:36;;;;;;;92.70;64.17;;;11.80;99.90;;;;;;5049224;28;20236;-62
2023/11/15 07:05:07;;;;;;;100.57;61.93;;;11.90;99.90;;;;;;5041155;28;20652;-63
2023/11/15 07:07:35;;;;;;;99.37;60.97;;;12.00;99.90;;;;;;5050819;28;20197;-63
2023/11/15 07:10:08;;;;;;;102.33;62.87;;;12.00;99.90;;;;;;5039364;28;20202;-62
2023/11/15 07:12:35;;;;;;;93.13;61.77;;;12.10;99.90;;;;;;5043722;28;20211;-63
2023/11/15 07:15:07;;;;;;;92.93;60.07;;;12.20;99.90;;;;;;5045974;28;20240;-62
2023/11/15 07:17:34;;;;;;;89.27;57.37;;;12.20;99.90;;;;;;5038234;28;20218;-63
2023/11/15 07:20:02;;;;;;;89.57;60.53;;;12.40;99.90;;;;;;5037915;28;20271;-63
2023/11/15 07:22:29;;;;;;;89.97;58.53;;;12.50;99.90;;;;;;5047526;28;20217;-62
2023/11/15 07:24:56;;;;;;;88.60;59.07;;;12.60;99.90;;;;;;5045948;28;20218;-62
2023/11/15 07:27:24;;;;;;;89.23;58.40;;;12.60;99.90;;;;;;5037320;28;20205;-63
2023/11/15 07:29:52;;;;;;;85.80;56.83;;;12.70;99.90;;;;;;5040885;28;20280;-63
2023/11/15 07:32:19;;;;;;;89.10;58.10;;;12.90;99.90;;;;;;5041976;28;20195;-62
2023/11/15 07:34:46;;;;;;;86.30;57.43;;;13.00;99.90;;;;;;5040858;28;20634;-63
2023/11/15 07:37:13;;;;;;;83.30;56.83;;;13.00;99.90;;;;;;5043848;28;20238;-62
2023/11/15 07:39:41;;;;;;;83.33;57.07;;;13.10;99.90;;;;;;5040298;28;20642;-62
2023/11/15 07:42:08;;;;;;;91.57;59.83;;;13.20;99.90;;;;;;5043415;28;20655;-63
2023/11/15 07:44:35;;;;;;;89.70;59.07;;;13.30;99.90;;;;;;5044893;28;20280;-63
2023/11/15 07:47:03;;;;;;;92.43;57.13;;;13.40;99.90;;;;;;5043310;28;20210;-63
2023/11/15 07:49:30;;;;;;;88.43;57.87;;;13.50;99.70;;;;;;5039573;28;20203;-62
2023/11/15 07:51:57;;;;;;;89.93;58.37;;;13.60;99.40;;;;;;5036766;28;20202;-63
2023/11/15 07:54:24;;;;;;;88.17;58.80;;;13.60;99.20;;;;;;5042871;28;20202;-62
2023/11/15 07:56:52;;;;;;;75.53;54.87;;;13.60;99.10;;;;;;5037914;28;20583;-62
2023/11/15 07:59:21;;;;;;;85.10;57.23;;;13.50;99.00;;;;;;5040238;28;20205;-62
2023/11/15 08:01:48;;;;;;;84.53;55.27;;;13.40;99.10;;;;;;5043796;28;20587;-61
2023/11/15 08:04:15;;;;;;;90.33;56.63;;;13.30;99.20;;;;;;5040910;28;20249;-62
2023/11/15 08:06:43;;;;;;;84.93;56.53;;;13.20;99.40;;;;;;5036649;28;20213;-62
2023/11/15 08:09:23;;;;;;;86.90;56.60;;;13.10;99.60;;;;;;5050426;28;20521;-61
2023/11/15 08:11:55;;;;;;;84.30;55.03;;;13.10;99.80;;;;;;5038815;28;20198;-62
2023/11/15 08:14:25;;;;;;;89.73;53.47;;;13.00;99.90;;;;;;5045951;28;20198;-62
2023/11/15 08:16:53;;;;;;;91.53;53.90;;;12.90;99.90;;;;;;5040201;28;20218;-62
2023/11/15 08:19:20;;;;;;;86.37;54.27;;;12.90;99.90;;;;;;5042375;28;20198;-62
2023/11/15 08:21:47;;;;;;;83.00;53.60;;;12.90;99.90;;;;;;5037468;28;20264;-62
2023/11/15 08:24:20;;;;;;;76.23;50.83;;;12.80;99.90;;;;;;5046430;28;20281;-62
2023/11/15 08:26:52;;;;;;;79.60;47.60;;;12.80;99.90;;;;;;5042582;28;20286;-62
2023/11/15 08:29:21;;;;;;;78.00;47.07;;;12.80;99.90;;;;;;5050422;28;20207;-62
2023/11/15 08:31:48;;;;;;;67.37;43.73;;;12.70;99.90;;;;;;5046721;28;20593;-62
2023/11/15 08:34:16;;;;;;;65.63;43.43;;;12.70;99.90;;;;;;5042591;28;20651;-62
2023/11/15 08:36:49;;;;;;;65.60;42.20;;;12.70;99.90;;;;;;5041016;28;20594;-62
2023/11/15 08:39:16;;;;;;;63.07;41.13;;;12.60;99.90;;;;;;5041663;28;20640;-61
2023/11/15 08:41:45;;;;;;;70.97;43.07;;;12.60;99.90;;;;;;5037815;28;20222;-62
2023/11/15 08:44:15;;;;;;;67.43;42.33;;;12.60;99.90;;;;;;5036322;28;20281;-62
2023/11/15 08:46:44;;;;;;;74.37;42.00;;;12.60;99.90;;;;;;5043849;28;20242;-62
2023/11/15 08:49:12;;;;;;;74.63;41.87;;;12.50;99.90;;;;;;5033295;28;20218;-62
2023/11/15 08:51:40;;;;;;;70.37;41.93;;;12.50;99.90;;;;;;5043361;28;20636;-62
2023/11/15 08:54:09;;;;;;;68.73;39.87;;;12.50;99.90;;;;;;5039413;28;20261;-62
2023/11/15 08:56:40;;;;;;;63.00;39.37;;;12.60;99.90;;;;;;5048070;28;20195;-62
2023/11/15 08:59:13;;;;;;;63.87;38.50;;;12.60;99.90;;;;;;5045477;28;20204;-62
2023/11/15 09:01:41;;;;;;;68.33;38.23;;;12.60;99.90;;;;;;5043590;28;20267;-62
2023/11/15 09:04:09;;;;;;;60.90;36.77;;;12.70;99.90;;;;;;5044321;28;20203;-61
2023/11/15 09:06:37;;;;;;;66.00;39.23;;;12.70;99.90;;;;;;5041569;28;20299;-62
2023/11/15 09:09:05;;;;;;;64.60;37.37;;;12.70;99.90;;;;;;5039876;28;20260;-62
2023/11/15 09:11:32;;;;;;;70.53;38.67;;;12.80;99.90;;;;;;5040224;28;20635;-62
2023/11/15 09:13:59;;;;;;;63.53;37.77;;;12.80;99.90;;;;;;5046865;28;20235;-62
2023/11/15 09:16:26;;;;;;;59.23;36.17;;;12.80;99.90;;;;;;5045808;28;20199;-61
2023/11/15 09:18:55;;;;;;;61.17;35.00;;;12.80;99.90;;;;;;5042453;28;20547;-62
2023/11/15 09:21:22;;;;;;;60.60;35.80;;;12.90;99.90;;;;;;5039027;28;20197;-61
2023/11/15 09:23:51;;;;;;;59.10;34.77;;;12.90;99.90;;;;;;5046596;28;20246;-62
2023/11/15 09:26:19;;;;;;;64.97;36.57;;;12.90;99.90;;;;;;5045336;28;20263;-61
2023/11/15 09:28:46;;;;;;;74.87;36.83;;;12.90;99.90;;;;;;5046048;28;20632;-62
2023/11/15 09:31:14;;;;;;;56.90;33.00;;;13.00;99.90;;;;;;5041769;28;20206;-62
2023/11/15 09:33:41;;;;;;;58.67;33.70;;;13.10;99.90;;;;;;5046920;28;20318;-62
2023/11/15 09:36:10;;;;;;;64.47;34.43;;;13.20;99.90;;;;;;5043404;28;20214;-61
2023/11/15 09:38:39;;;;;;;63.33;36.03;;;13.20;99.90;;;;;;5045936;28;20224;-62
2023/11/15 09:41:12;;;;;;;61.03;35.87;;;13.30;99.90;;;;;;5051044;28;20654;-62
2023/11/15 09:43:41;;;;;;;57.97;34.87;;;13.30;99.90;;;;;;5039635;28;20200;-61
2023/11/15 09:46:10;;;;;;;62.90;36.60;;;13.30;99.90;;;;;;5044494;28;20213;-62
2023/11/15 09:48:43;;;;;;;67.17;35.83;;;13.40;99.90;;;;;;5043423;28;20214;-62
2023/11/15 09:51:32;;;;;;;61.10;35.87;;;13.40;99.90;;;;;;5046618;28;20280;-62
2023/11/15 09:54:03;;;;;;;58.87;34.50;;;13.50;99.90;;;;;;5056508;28;20523;-62
2023/11/15 09:56:49;;;;;;;64.97;36.27;;;13.60;99.90;;;;;;5044506;28;20206;-62
2023/11/15 09:59:18;;;;;;;61.57;34.87;;;13.60;99.90;;;;;;5041418;28;20220;-62
2023/11/15 10:01:48;;;;;;;60.13;36.80;;;13.60;99.90;;;;;;5041063;28;20219;-62
2023/11/15 10:04:23;;;;;;;73.53;36.80;;;13.70;99.90;;;;;;5046908;28;20315;-62
2023/11/15 10:06:51;;;;;;;69.40;38.40;;;13.70;99.90;;;;;;5040045;28;20513;-62
2023/11/15 10:09:38;;;;;;;58.27;35.97;;;13.70;99.90;;;;;;5042095;28;20762;-62
2023/11/15 10:12:07;;;;;;;59.90;35.80;;;13.70;99.90;;;;;;5045214;28;20659;-62
2023/11/15 10:14:52;;;;;;;62.07;37.13;;;13.80;99.90;;;;;;5041745;28;20210;-62
2023/11/15 10:17:38;;;;;;;63.83;37.33;;;13.90;99.90;;;;;;5044469;28;20199;-62
2023/11/15 10:20:25;;;;;;;63.67;37.17;;;13.90;99.90;;;;;;5042490;28;20226;-62
2023/11/15 10:22:53;;;;;;;63.93;36.77;;;14.00;99.90;;;;;;5041315;28;20214;-62
2023/11/15 10:25:20;;;;;;;60.37;35.97;;;14.00;99.90;;;;;;5040933;28;20208;-62
2023/11/15 10:27:50;;;;;;;64.03;34.93;;;14.10;99.90;;;;;;5043634;28;20301;-62
2023/11/15 10:30:20;;;;;;;63.60;35.83;;;14.20;99.70;;;;;;5040731;28;20203;-62
2023/11/15 10:32:47;;;;;;;60.90;37.37;;;14.20;99.30;;;;;;5037218;28;20268;-63
2023/11/15 10:35:27;;;;;;;60.63;35.10;;;14.30;99.30;;;;;;5043746;28;20273;-62
2023/11/15 10:37:55;;;;;;;60.03;35.37;;;14.40;99.10;;;;;;5045098;28;20215;-63
2023/11/15 10:40:25;;;;;;;58.93;35.63;;;14.40;98.90;;;;;;5044043;28;20592;-62
2023/11/15 10:42:54;;;;;;;67.03;37.20;;;14.40;98.80;;;;;;5037866;28;20213;-62
2023/11/15 10:45:23;;;;;;;57.27;33.37;;;14.50;98.90;;;;;;5042500;28;20214;-62
2023/11/15 10:47:57;;;;;;;51.80;32.00;;;14.60;99.00;;;;;;5042580;28;20312;-62
2023/11/15 10:50:27;;;;;;;55.43;32.13;;;14.70;99.00;;;;;;5038462;28;20202;-62
2023/11/15 10:52:55;;;;;;;54.80;33.00;;;14.80;98.70;;;;;;5044841;28;20208;-62
2023/11/15 10:55:23;;;;;;;54.90;34.57;;;14.80;98.30;;;;;;5038751;28;20198;-62
2023/11/15 10:57:51;;;;;;;50.97;32.73;;;14.90;98.40;;;;;;5042236;28;20222;-62
2023/11/15 11:00:20;;;;;;;49.70;33.13;;;15.10;98.30;;;;;;5042587;28;20201;-62
2023/11/15 11:02:51;;;;;;;49.27;33.27;;;15.20;98.20;;;;;;5046113;28;20237;-62
2023/11/15 11:05:45;;;;;;;56.57;33.47;;;15.30;98.10;;;;;;5044700;28;20646;-62
2023/11/15 11:08:42;;;;;;;50.67;31.50;;;15.50;97.90;;;;;;5043341;28;20225;-62
2023/11/15 11:11:09;;;;;;;50.33;31.10;;;15.60;97.40;;;;;;5046549;28;20210;-62
2023/11/15 11:13:40;;;;;;;48.37;29.53;;;15.70;97.00;;;;;;5043619;28;20207;-62
2023/11/15 11:16:30;;;;;;;46.17;31.03;;;15.70;96.70;;;;;;5045785;28;20195;-61
2023/11/15 11:19:25;;;;;;;44.30;28.60;;;15.70;96.80;;;;;;5033328;28;20227;-62
2023/11/15 11:22:05;;;;;;;51.40;28.77;;;15.70;96.70;;;;;;5042380;28;20205;-62
2023/11/15 11:24:34;;;;;;;52.90;29.10;;;15.80;96.50;;;;;;5042380;28;20205;-62
2023/11/15 11:27:16;;;;;;;42.23;28.47;;;15.90;96.20;;;;;;5040731;28;20194;-62
2023/11/15 11:29:58;;;;;;;51.23;29.63;;;15.90;96.00;;;;;;5042576;28;20206;-61
2023/11/15 11:32:27;;;;;;;50.00;30.53;;;15.90;96.00;;;;;;5042068;28;20188;-62
2023/11/15 11:35:13;;;;;;;40.97;28.07;;;16.00;96.00;;;;;;5042117;28;20581;-62
2023/11/15 11:38:00;;;;;;;40.87;27.00;;;16.00;95.70;;;;;;5045931;28;20208;-62
2023/11/15 11:40:33;;;;;;;40.20;27.27;;;16.10;95.70;;;;;;5042537;28;20629;-61
2023/11/15 11:43:30;;;;;;;43.53;28.40;;;16.20;95.70;;;;;;5043671;28;20203;-63
2023/11/15 11:46:10;;;;;;;46.53;29.40;;;16.30;95.30;;;;;;5041482;28;20658;-62
2023/11/15 11:48:37;;;;;;;43.27;27.63;;;16.40;95.30;;;;;;5039742;28;20254;-62
2023/11/15 11:51:06;;;;;;;42.23;28.30;;;16.50;95.00;;;;;;5042185;28;20210;-62
2023/11/15 11:53:42;;;;;;;46.10;30.43;;;16.50;94.90;;;;;;5039450;28;20195;-62
2023/11/15 11:56:10;;;;;;;43.67;29.10;;;16.50;95.20;;;;;;5035459;28;20652;-62
2023/11/15 11:58:39;;;;;;;42.47;28.10;;;16.60;95.10;;;;;;5040865;28;20299;-62
2023/11/15 12:01:08;;;;;;;43.87;29.37;;;16.70;95.00;;;;;;5041517;28;20200;-62
2023/11/15 12:03:39;;;;;;;40.37;28.00;;;16.80;95.00;;;;;;5037247;28;20322;-62
2023/11/15 12:06:09;;;;;;;41.83;28.80;;;16.90;94.90;;;;;;5038626;28;20260;-62
2023/11/15 12:08:38;;;;;;;43.80;29.27;;;16.90;94.60;;;;;;5039017;28;20213;-62
2023/11/15 12:11:08;;;;;;;43.87;29.13;;;17.00;94.10;;;;;;5042047;28;20226;-62
2023/11/15 12:13:42;;;;;;;44.23;27.73;;;17.00;94.20;;;;;;5038341;28;20207;-62
2023/11/15 12:16:16;;;;;;;43.53;29.30;;;17.10;94.40;;;;;;5045035;28;20204;-62
2023/11/15 12:19:05;;;;;;;43.27;28.00;;;17.10;94.00;;;;;;5062502;28;20218;-62
2023/11/15 12:21:37;;;;;;;47.27;29.17;;;17.20;93.90;;;;;;5043444;28;20261;-63
2023/11/15 12:24:05;;;;;;;43.57;28.77;;;17.20;93.60;;;;;;5050890;28;20199;-62
2023/11/15 12:27:02;;;;;;;44.20;28.90;;;17.20;93.70;;;;;;5044175;28;20218;-62
2023/11/15 12:29:30;;;;;;;47.73;29.93;;;17.20;93.60;;;;;;5044548;28;20303;-62
2023/11/15 12:31:59;;;;;;;41.80;29.43;;;17.20;93.60;;;;;;5041325;28;20616;-62
2023/11/15 12:34:27;;;;;;;40.30;28.37;;;17.20;93.70;;;;;;5039650;28;20215;-62
2023/11/15 12:36:54;;;;;;;43.70;29.07;;;17.20;93.60;;;;;;5045810;28;20214;-62